createdAt,value
2018-01-27T00:01:06.978Z,7.28
2018-01-27T00:02:16.684Z,7.33
2018-01-27T00:03:26.374Z,7.29
2018-01-27T00:04:36.337Z,7.28
2018-01-27T00:05:46.275Z,7.36
2018-01-27T00:06:55.964Z,7.18
2018-01-27T00:08:05.707Z,7.25
2018-01-27T00:09:15.704Z,7.28
2018-01-27T00:10:25.402Z,7.32
2018-01-27T00:11:35.350Z,7.28
2018-01-27T00:12:45.044Z,7.33
2018-01-27T00:13:54.997Z,7.19
2018-01-27T00:15:04.955Z,7.29
2018-01-27T00:16:14.900Z,7.33
2018-01-27T00:17:24.849Z,7.31
2018-01-27T00:18:34.529Z,7.36
2018-01-27T00:19:44.229Z,7.33
2018-01-27T00:20:54.180Z,7.31
2018-01-27T00:22:04.124Z,7.4
2018-01-27T00:23:13.831Z,7.36
2018-01-27T00:24:23.788Z,7.37
2018-01-27T00:25:33.752Z,7.37
2018-01-27T00:26:43.724Z,7.43
2018-01-27T00:27:53.422Z,7.43
2018-01-27T00:29:03.369Z,7.53
2018-01-27T00:30:13.430Z,7.46
2018-01-27T00:31:23.124Z,7.51
2018-01-27T00:32:33.085Z,7.51
2018-01-27T00:33:43.040Z,7.44
2018-01-27T00:34:52.992Z,7.53
2018-01-27T00:36:02.942Z,7.48
2018-01-27T00:37:12.895Z,7.51
2018-01-27T00:38:22.321Z,7.47
2018-01-27T00:39:32.266Z,7.55
2018-01-27T00:40:42.207Z,7.56
2018-01-27T00:41:52.148Z,7.46
2018-01-27T00:43:02.095Z,7.56
2018-01-27T00:44:11.527Z,7.5
2018-01-27T00:45:21.488Z,7.62
2018-01-27T00:46:31.455Z,7.51
2018-01-27T00:47:41.411Z,7.61
2018-01-27T00:48:51.379Z,7.48
2018-01-27T00:50:00.835Z,7.44
2018-01-27T00:51:10.799Z,7.44
2018-01-27T00:52:20.491Z,7.41
2018-01-27T00:53:30.440Z,7.37
2018-01-27T00:54:40.133Z,7.25
2018-01-27T00:55:50.089Z,7.31
2018-01-27T00:57:00.038Z,7.36
2018-01-27T00:58:10.005Z,7.18
2018-01-27T00:59:19.941Z,7.18
2018-01-27T01:00:29.909Z,7.19
2018-01-27T01:01:39.857Z,7.19
2018-01-27T01:02:49.814Z,7.21
2018-01-27T01:03:59.800Z,7.14
2018-01-27T01:05:09.753Z,7.18
2018-01-27T01:06:19.445Z,7.14
2018-01-27T01:07:29.387Z,7.01
2018-01-27T01:08:39.333Z,7.04
2018-01-27T01:09:49.285Z,6.97
2018-01-27T01:10:59.226Z,7.04
2018-01-27T01:12:09.180Z,7.04
2018-01-27T01:13:18.880Z,7.04
2018-01-27T01:14:28.833Z,6.96
2018-01-27T01:15:38.526Z,7.04
2018-01-27T01:16:48.217Z,7.04
2018-01-27T01:17:58.164Z,7.04
2018-01-27T01:19:08.122Z,6.97
2018-01-27T01:20:18.074Z,6.95
2018-01-27T01:21:28.030Z,7.05
2018-01-27T01:22:37.723Z,6.93
2018-01-27T01:23:47.668Z,6.96
2018-01-27T01:24:57.105Z,6.92
2018-01-27T01:26:07.055Z,6.95
2018-01-27T01:27:16.751Z,6.97
2018-01-27T01:28:26.694Z,7
2018-01-27T01:29:36.636Z,6.96
2018-01-27T01:30:46.320Z,7.04
2018-01-27T01:31:56.269Z,7
2018-01-27T01:33:06.229Z,7.03
2018-01-27T01:34:16.188Z,7.11
2018-01-27T01:35:25.870Z,7
2018-01-27T01:36:35.565Z,7.04
2018-01-27T01:37:45.521Z,6.92
2018-01-27T01:38:55.477Z,7
2018-01-27T01:40:05.418Z,6.96
2018-01-27T01:41:15.386Z,6.86
2018-01-27T01:42:25.343Z,6.9
2018-01-27T01:43:35.288Z,6.93
2018-01-27T01:44:44.982Z,6.82
2018-01-27T01:45:54.932Z,6.87
2018-01-27T01:47:04.887Z,6.95
2018-01-27T01:48:14.835Z,6.89
2018-01-27T01:49:24.533Z,6.9
2018-01-27T01:50:34.477Z,7
2018-01-27T01:51:44.170Z,6.87
2018-01-27T01:52:54.124Z,6.97
2018-01-27T01:54:04.080Z,6.83
2018-01-27T01:55:14.023Z,6.85
2018-01-27T01:56:23.986Z,6.86
2018-01-27T01:57:33.943Z,6.83
2018-01-27T01:58:43.899Z,6.89
2018-01-27T01:59:53.848Z,6.85
2018-01-27T02:01:03.277Z,6.72
2018-01-27T02:02:13.219Z,6.68
2018-01-27T02:03:23.168Z,6.64
2018-01-27T02:04:33.116Z,6.68
2018-01-27T02:05:43.061Z,6.75
2018-01-27T02:06:52.749Z,6.62
2018-01-27T02:08:02.443Z,6.64
2018-01-27T02:09:12.395Z,6.62
2018-01-27T02:10:22.339Z,6.6
2018-01-27T02:11:31.772Z,6.59
2018-01-27T02:12:41.462Z,6.68
2018-01-27T02:13:51.401Z,6.62
2018-01-27T02:15:01.344Z,6.56
2018-01-27T02:16:11.032Z,6.62
2018-01-27T02:17:20.716Z,6.6
2018-01-27T02:18:30.662Z,6.64
2018-01-27T02:19:40.604Z,6.6
2018-01-27T02:20:50.300Z,6.62
2018-01-27T02:22:00.001Z,6.62
2018-01-27T02:23:09.699Z,6.59
2018-01-27T02:24:19.434Z,6.56
2018-01-27T02:25:29.374Z,6.54
2018-01-27T02:26:39.330Z,6.56
2018-01-27T02:27:49.282Z,6.65
2018-01-27T02:28:58.964Z,6.64
2018-01-27T02:30:08.666Z,6.6
2018-01-27T02:31:18.618Z,6.6
2018-01-27T02:32:28.050Z,6.65
2018-01-27T02:33:37.765Z,6.6
2018-01-27T02:34:47.703Z,6.59
2018-01-27T02:35:57.664Z,6.53
2018-01-27T02:37:07.843Z,6.56
2018-01-27T02:38:17.796Z,6.6
2018-01-27T02:39:27.537Z,6.6
2018-01-27T02:40:37.475Z,6.6
2018-01-27T02:41:47.425Z,6.53
2018-01-27T02:42:57.389Z,6.6
2018-01-27T02:44:07.337Z,6.54
2018-01-27T02:45:17.281Z,6.53
2018-01-27T02:46:27.241Z,6.54
2018-01-27T02:47:37.188Z,6.56
2018-01-27T02:48:46.877Z,6.54
2018-01-27T02:49:56.847Z,6.54
2018-01-27T02:51:06.290Z,6.54
2018-01-27T02:52:16.240Z,6.59
2018-01-27T02:53:25.415Z,6.59
2018-01-27T02:54:35.120Z,6.53
2018-01-27T02:55:44.817Z,6.59
2018-01-27T02:56:54.784Z,6.57
2018-01-27T02:58:04.472Z,6.62
2018-01-27T02:59:14.415Z,6.6
2018-01-27T03:00:24.355Z,6.6
2018-01-27T03:01:34.313Z,6.56
2018-01-27T03:02:44.259Z,6.57
2018-01-27T03:03:54.210Z,6.6
2018-01-27T03:05:04.156Z,6.6
2018-01-27T03:06:13.847Z,6.62
2018-01-27T03:07:23.799Z,6.52
2018-01-27T03:08:33.486Z,6.6
2018-01-27T03:09:43.430Z,6.54
2018-01-27T03:10:53.386Z,6.65
2018-01-27T03:12:03.066Z,6.6
2018-01-27T03:13:12.823Z,6.56
2018-01-27T03:14:22.762Z,6.53
2018-01-27T03:15:32.697Z,6.52
2018-01-27T03:16:42.636Z,6.54
2018-01-27T03:17:52.318Z,6.59
2018-01-27T03:19:02.003Z,6.6
2018-01-27T03:20:11.944Z,6.56
2018-01-27T03:21:21.898Z,6.59
2018-01-27T03:22:31.846Z,6.57
2018-01-27T03:23:41.795Z,6.6
2018-01-27T03:24:51.486Z,6.56
2018-01-27T03:26:01.176Z,6.59
2018-01-27T03:27:11.124Z,6.59
2018-01-27T03:28:20.821Z,6.56
2018-01-27T03:29:30.770Z,6.59
2018-01-27T03:30:40.734Z,6.56
2018-01-27T03:31:50.417Z,6.53
2018-01-27T03:33:00.106Z,6.53
2018-01-27T03:34:10.056Z,6.49
2018-01-27T03:35:19.994Z,6.53
2018-01-27T03:36:29.930Z,6.52
2018-01-27T03:37:39.869Z,6.57
2018-01-27T03:38:49.818Z,6.49
2018-01-27T03:39:59.762Z,6.52
2018-01-27T03:41:09.454Z,6.47
2018-01-27T03:42:19.399Z,6.53
2018-01-27T03:43:29.394Z,6.5
2018-01-27T03:44:39.342Z,6.49
2018-01-27T03:45:49.281Z,6.5
2018-01-27T03:46:58.964Z,6.47
2018-01-27T03:48:08.400Z,6.43
2018-01-27T03:49:18.338Z,6.49
2018-01-27T03:50:27.975Z,6.36
2018-01-27T03:51:37.911Z,6.46
2018-01-27T03:52:47.610Z,6.47
2018-01-27T03:53:57.596Z,6.36
2018-01-27T03:55:07.544Z,6.41
2018-01-27T03:56:17.242Z,6.36
2018-01-27T03:57:26.935Z,6.46
2018-01-27T03:58:36.638Z,6.43
2018-01-27T03:59:46.606Z,6.41
2018-01-27T04:00:56.298Z,6.44
2018-01-27T04:02:06.254Z,6.38
2018-01-27T04:03:16.196Z,6.35
2018-01-27T04:04:25.378Z,6.44
2018-01-27T04:05:34.813Z,6.26
2018-01-27T04:06:44.750Z,6.26
2018-01-27T04:07:54.702Z,6.38
2018-01-27T04:09:04.655Z,6.34
2018-01-27T04:10:14.608Z,6.34
2018-01-27T04:11:24.557Z,6.28
2018-01-27T04:12:34.508Z,6.26
2018-01-27T04:13:44.190Z,6.25
2018-01-27T04:14:54.135Z,6.28
2018-01-27T04:16:04.094Z,6.34
2018-01-27T04:17:14.041Z,6.31
2018-01-27T04:18:23.727Z,6.28
2018-01-27T04:19:33.662Z,6.2
2018-01-27T04:20:43.354Z,6.28
2018-01-27T04:21:53.290Z,6.28
2018-01-27T04:23:03.283Z,6.15
2018-01-27T04:24:12.713Z,6.17
2018-01-27T04:25:22.395Z,6.16
2018-01-27T04:26:32.350Z,6.19
2018-01-27T04:27:42.292Z,6.13
2018-01-27T04:28:51.984Z,6.15
2018-01-27T04:30:01.918Z,6.15
2018-01-27T04:31:11.599Z,6.13
2018-01-27T04:32:21.290Z,6.16
2018-01-27T04:33:30.982Z,6.12
2018-01-27T04:34:40.934Z,6.13
2018-01-27T04:35:50.628Z,6.13
2018-01-27T04:37:00.586Z,6.1
2018-01-27T04:38:10.520Z,6.13
2018-01-27T04:39:20.464Z,6.13
2018-01-27T04:40:30.149Z,6.15
2018-01-27T04:41:39.833Z,6.17
2018-01-27T04:42:49.774Z,6.15
2018-01-27T04:43:59.721Z,6.15
2018-01-27T04:45:09.433Z,6.17
2018-01-27T04:46:19.384Z,6.19
2018-01-27T04:47:29.060Z,6.1
2018-01-27T04:48:39.012Z,6.17
2018-01-27T04:49:49.009Z,6.17
2018-01-27T04:50:58.959Z,6.16
2018-01-27T04:52:08.583Z,6.09
2018-01-27T04:53:18.263Z,6.2
2018-01-27T04:54:28.196Z,6.13
2018-01-27T04:55:38.194Z,6.16
2018-01-27T04:56:48.133Z,6.1
2018-01-27T04:57:58.089Z,6.22
2018-01-27T04:59:07.765Z,6.22
2018-01-27T05:00:17.450Z,6.15
2018-01-27T05:01:27.410Z,6.19
2018-01-27T05:02:37.157Z,6.15
2018-01-27T05:03:47.154Z,6.15
2018-01-27T05:04:56.834Z,6.16
2018-01-27T05:06:06.276Z,6.13
2018-01-27T05:07:16.217Z,6.13
2018-01-27T05:08:26.161Z,6.13
2018-01-27T05:09:36.106Z,6.12
2018-01-27T05:10:46.048Z,6.16
2018-01-27T05:11:55.988Z,6.12
2018-01-27T05:13:05.928Z,6.17
2018-01-27T05:14:15.864Z,6.16
2018-01-27T05:15:25.546Z,6.13
2018-01-27T05:16:35.491Z,6.1
2018-01-27T05:17:45.449Z,6.16
2018-01-27T05:18:55.138Z,6.16
2018-01-27T05:20:05.085Z,6.15
2018-01-27T05:21:15.028Z,6.09
2018-01-27T05:22:24.727Z,6.12
2018-01-27T05:23:34.684Z,6.13
2018-01-27T05:24:44.627Z,6.12
2018-01-27T05:25:54.563Z,6.12
2018-01-27T05:27:04.507Z,6.12
2018-01-27T05:28:14.459Z,6.15
2018-01-27T05:29:24.414Z,6.13
2018-01-27T05:30:34.362Z,6.09
2018-01-27T05:31:44.318Z,6.12
2018-01-27T05:32:54.015Z,6.12
2018-01-27T05:34:03.948Z,6.13
2018-01-27T05:35:13.892Z,6.13
2018-01-27T05:36:23.843Z,6.12
2018-01-27T05:37:33.789Z,6.09
2018-01-27T05:38:43.729Z,6.13
2018-01-27T05:39:53.155Z,6.1
2018-01-27T05:41:02.846Z,6.07
2018-01-27T05:42:12.788Z,6.12
2018-01-27T05:43:22.735Z,6.09
2018-01-27T05:44:32.697Z,6.1
2018-01-27T05:45:42.637Z,6.06
2018-01-27T05:46:52.333Z,6.09
2018-01-27T05:48:02.287Z,6.09
2018-01-27T05:49:11.980Z,6.13
2018-01-27T05:50:21.909Z,6.06
2018-01-27T05:51:31.851Z,6.12
2018-01-27T05:52:41.797Z,6.17
2018-01-27T05:53:51.476Z,6.09
2018-01-27T05:55:01.430Z,6.06
2018-01-27T05:56:11.390Z,5.97
2018-01-27T05:57:21.105Z,6.06
2018-01-27T05:58:31.050Z,6.12
2018-01-27T05:59:41.004Z,6.06
2018-01-27T06:00:50.943Z,5.98
2018-01-27T06:02:00.631Z,6.07
2018-01-27T06:03:10.310Z,6.01
2018-01-27T06:04:19.993Z,5.95
2018-01-27T06:05:29.929Z,5.94
2018-01-27T06:06:39.918Z,5.97
2018-01-27T06:07:49.856Z,6.02
2018-01-27T06:08:59.543Z,5.9
2018-01-27T06:10:09.489Z,5.97
2018-01-27T06:11:18.918Z,6.02
2018-01-27T06:12:28.856Z,6.01
2018-01-27T06:13:38.798Z,5.95
2018-01-27T06:14:48.482Z,5.97
2018-01-27T06:15:58.423Z,5.95
2018-01-27T06:17:08.136Z,5.92
2018-01-27T06:18:18.075Z,5.94
2018-01-27T06:19:27.821Z,5.95
2018-01-27T06:20:37.518Z,5.94
2018-01-27T06:21:47.521Z,5.97
2018-01-27T06:22:57.466Z,5.94
2018-01-27T06:24:07.413Z,5.92
2018-01-27T06:25:17.099Z,5.81
2018-01-27T06:26:27.046Z,5.98
2018-01-27T06:27:36.725Z,5.97
2018-01-27T06:28:46.666Z,5.95
2018-01-27T06:29:56.614Z,5.98
2018-01-27T06:31:06.052Z,5.97
2018-01-27T06:32:15.996Z,5.97
2018-01-27T06:33:25.957Z,5.95
2018-01-27T06:34:35.907Z,5.91
2018-01-27T06:35:45.885Z,5.84
2018-01-27T06:36:55.820Z,5.94
2018-01-27T06:38:05.514Z,5.98
2018-01-27T06:39:15.465Z,5.97
2018-01-27T06:40:25.149Z,5.95
2018-01-27T06:41:34.856Z,5.97
2018-01-27T06:42:44.531Z,5.98
2018-01-27T06:43:54.226Z,5.95
2018-01-27T06:45:04.174Z,5.94
2018-01-27T06:46:13.866Z,6.02
2018-01-27T06:47:23.814Z,5.97
2018-01-27T06:48:33.770Z,5.95
2018-01-27T06:49:43.468Z,5.99
2018-01-27T06:50:53.414Z,5.99
2018-01-27T06:52:03.394Z,5.98
2018-01-27T06:53:13.068Z,6.01
2018-01-27T06:54:22.771Z,5.95
2018-01-27T06:55:32.197Z,5.99
2018-01-27T06:56:41.631Z,5.87
2018-01-27T06:57:51.573Z,6.09
2018-01-27T06:59:01.519Z,6.01
2018-01-27T07:00:11.206Z,6.02
2018-01-27T07:01:20.896Z,5.98
2018-01-27T07:02:30.323Z,5.98
2018-01-27T07:03:40.009Z,5.94
2018-01-27T07:04:49.431Z,5.99
2018-01-27T07:05:59.378Z,5.97
2018-01-27T07:07:09.064Z,5.81
2018-01-27T07:08:19.012Z,5.87
2018-01-27T07:09:28.954Z,5.88
2018-01-27T07:10:39.007Z,5.94
2018-01-27T07:11:48.942Z,5.84
2018-01-27T07:12:58.885Z,5.92
2018-01-27T07:14:08.576Z,5.91
2018-01-27T07:15:18.510Z,5.94
2018-01-27T07:16:28.194Z,5.84
2018-01-27T07:17:38.142Z,5.84
2018-01-27T07:18:48.091Z,5.88
2018-01-27T07:19:57.786Z,5.88
2018-01-27T07:21:07.736Z,5.88
2018-01-27T07:22:17.671Z,5.8
2018-01-27T07:23:27.099Z,5.84
2018-01-27T07:24:37.042Z,5.79
2018-01-27T07:25:47.023Z,5.8
2018-01-27T07:26:56.975Z,5.76
2018-01-27T07:28:06.925Z,5.74
2018-01-27T07:29:16.894Z,5.79
2018-01-27T07:30:26.841Z,5.8
2018-01-27T07:31:36.778Z,5.67
2018-01-27T07:32:46.722Z,5.72
2018-01-27T07:33:56.661Z,5.79
2018-01-27T07:35:06.339Z,5.76
2018-01-27T07:36:16.289Z,5.76
2018-01-27T07:37:25.981Z,5.77
2018-01-27T07:38:35.690Z,5.77
2018-01-27T07:39:45.631Z,5.79
2018-01-27T07:40:55.587Z,5.79
2018-01-27T07:42:05.534Z,5.79
2018-01-27T07:43:15.472Z,5.74
2018-01-27T07:44:25.411Z,5.77
2018-01-27T07:45:35.354Z,5.84
2018-01-27T07:46:45.043Z,5.74
2018-01-27T07:47:54.982Z,5.91
2018-01-27T07:49:04.951Z,5.88
2018-01-27T07:50:14.923Z,5.9
2018-01-27T07:51:24.872Z,5.91
2018-01-27T07:52:34.852Z,5.81
2018-01-27T07:53:44.840Z,5.91
2018-01-27T07:54:54.796Z,5.92
2018-01-27T07:56:04.489Z,5.95
2018-01-27T07:57:13.934Z,5.97
2018-01-27T07:58:23.899Z,5.95
2018-01-27T07:59:33.855Z,5.88
2018-01-27T08:00:43.804Z,5.97
2018-01-27T08:01:53.525Z,5.94
2018-01-27T08:03:03.471Z,5.97
2018-01-27T08:04:13.147Z,5.95
2018-01-27T08:05:23.094Z,5.95
2018-01-27T08:06:33.038Z,5.94
2018-01-27T08:07:42.737Z,5.95
2018-01-27T08:08:52.437Z,5.92
2018-01-27T08:10:02.126Z,5.94
2018-01-27T08:11:12.081Z,5.91
2018-01-27T08:12:21.772Z,5.88
2018-01-27T08:13:31.743Z,5.91
2018-01-27T08:14:41.437Z,5.83
2018-01-27T08:15:51.392Z,5.9
2018-01-27T08:17:01.099Z,5.98
2018-01-27T08:18:11.055Z,5.91
2018-01-27T08:19:20.740Z,5.94
2018-01-27T08:20:30.694Z,5.92
2018-01-27T08:21:40.643Z,5.92
2018-01-27T08:22:50.587Z,5.97
2018-01-27T08:24:00.533Z,5.95
2018-01-27T08:25:10.555Z,5.95
2018-01-27T08:26:20.509Z,5.97
2018-01-27T08:27:30.202Z,5.95
2018-01-27T08:28:40.166Z,5.94
2018-01-27T08:29:49.855Z,5.87
2018-01-27T08:30:59.549Z,5.95
2018-01-27T08:32:08.986Z,5.79
2018-01-27T08:33:18.949Z,5.9
2018-01-27T08:34:28.889Z,5.98
2018-01-27T08:35:38.838Z,5.88
2018-01-27T08:36:48.791Z,5.95
2018-01-27T08:37:58.801Z,5.97
2018-01-27T08:39:08.760Z,5.98
2018-01-27T08:40:18.722Z,6.01
2018-01-27T08:41:28.676Z,6.06
2018-01-27T08:42:38.134Z,6.01
2018-01-27T08:43:47.833Z,6.06
2018-01-27T08:44:57.528Z,6.05
2018-01-27T08:46:07.494Z,6.13
2018-01-27T08:47:17.458Z,6.06
2018-01-27T08:48:27.146Z,6.09
2018-01-27T08:49:37.100Z,6.16
2018-01-27T08:50:47.051Z,6.09
2018-01-27T08:51:56.740Z,6.06
2018-01-27T08:53:06.433Z,6.2
2018-01-27T08:54:16.115Z,6.13
2018-01-27T08:55:26.062Z,6.17
2018-01-27T08:56:35.773Z,6.16
2018-01-27T08:57:45.521Z,6.1
2018-01-27T08:58:54.950Z,6.15
2018-01-27T09:00:04.658Z,6.15
2018-01-27T09:01:14.403Z,6.13
2018-01-27T09:02:24.148Z,6.32
2018-01-27T09:03:34.114Z,6.32
2018-01-27T09:04:44.070Z,6.34
2018-01-27T09:05:54.020Z,6.34
2018-01-27T09:07:04.004Z,6.25
2018-01-27T09:08:13.956Z,6.25
2018-01-27T09:09:23.907Z,6.31
2018-01-27T09:10:33.682Z,6.26
2018-01-27T09:11:43.669Z,6.28
2018-01-27T09:12:53.625Z,6.32
2018-01-27T09:14:03.653Z,6.31
2018-01-27T09:15:13.610Z,6.29
2018-01-27T09:16:23.041Z,6.29
2018-01-27T09:17:32.723Z,6.28
2018-01-27T09:18:42.734Z,6.22
2018-01-27T09:19:52.677Z,6.31
2018-01-27T09:21:02.630Z,6.31
2018-01-27T09:22:12.567Z,6.35
2018-01-27T09:23:22.526Z,6.28
2018-01-27T09:24:32.469Z,6.35
2018-01-27T09:25:42.209Z,6.34
2018-01-27T09:26:52.148Z,6.32
2018-01-27T09:28:02.126Z,6.38
2018-01-27T09:29:11.561Z,6.38
2018-01-27T09:30:21.280Z,6.39
2018-01-27T09:31:31.264Z,6.38
2018-01-27T09:32:40.965Z,6.39
2018-01-27T09:33:50.920Z,6.34
2018-01-27T09:35:00.876Z,6.32
2018-01-27T09:36:10.819Z,6.39
2018-01-27T09:37:20.835Z,6.38
2018-01-27T09:38:30.852Z,6.43
2018-01-27T09:39:40.541Z,6.44
2018-01-27T09:40:50.235Z,6.49
2018-01-27T09:42:00.131Z,6.38
2018-01-27T09:43:10.083Z,6.47
2018-01-27T09:44:19.779Z,6.44
2018-01-27T09:45:29.473Z,6.5
2018-01-27T09:46:39.442Z,6.59
2018-01-27T09:47:49.435Z,6.54
2018-01-27T09:48:59.145Z,6.62
2018-01-27T09:50:09.137Z,6.54
2018-01-27T09:51:19.106Z,6.6
2018-01-27T09:52:29.052Z,6.53
2018-01-27T09:53:38.996Z,6.47
2018-01-27T09:54:48.701Z,6.54
2018-01-27T09:55:58.667Z,6.54
2018-01-27T09:57:08.382Z,6.52
2018-01-27T09:58:18.328Z,6.54
2018-01-27T09:59:28.284Z,6.57
2018-01-27T10:00:38.248Z,6.68
2018-01-27T10:01:47.967Z,6.6
2018-01-27T10:02:57.660Z,6.62
2018-01-27T10:04:07.351Z,6.7
2018-01-27T10:05:17.304Z,6.59
2018-01-27T10:06:27.251Z,6.54
2018-01-27T10:07:37.221Z,6.59
2018-01-27T10:08:47.165Z,6.53
2018-01-27T10:09:57.126Z,6.54
2018-01-27T10:11:06.825Z,6.59
2018-01-27T10:12:16.776Z,6.6
2018-01-27T10:13:26.490Z,6.74
2018-01-27T10:14:36.448Z,6.77
2018-01-27T10:15:46.144Z,6.83
2018-01-27T10:16:55.830Z,6.97
2018-01-27T10:18:05.535Z,7.01
2018-01-27T10:19:15.502Z,7.14
2018-01-27T10:20:25.199Z,7.14
2018-01-27T10:21:34.891Z,7.04
2018-01-27T10:22:44.843Z,6.95
2018-01-27T10:23:54.542Z,6.93
2018-01-27T10:25:04.227Z,7.03
2018-01-27T10:26:14.214Z,7.14
2018-01-27T10:27:23.655Z,7.41
2018-01-27T10:28:33.610Z,7.44
2018-01-27T10:29:43.572Z,7.55
2018-01-27T10:30:53.269Z,7.61
2018-01-27T10:32:02.987Z,7.62
2018-01-27T10:33:12.696Z,7.66
2018-01-27T10:34:22.664Z,7.58
2018-01-27T10:35:32.605Z,7.5
2018-01-27T10:36:42.315Z,7.37
2018-01-27T10:37:52.259Z,7.36
2018-01-27T10:39:02.219Z,7.29
2018-01-27T10:40:11.924Z,7.31
2018-01-27T10:41:21.366Z,7.31
2018-01-27T10:42:30.813Z,7.28
2018-01-27T10:43:40.769Z,7.18
2018-01-27T10:44:50.720Z,7.19
2018-01-27T10:46:00.428Z,7.23
2018-01-27T10:47:10.379Z,7.25
2018-01-27T10:48:20.384Z,7.15
2018-01-27T10:49:30.343Z,7.13
2018-01-27T10:50:40.320Z,7.15
2018-01-27T10:51:50.017Z,7.07
2018-01-27T10:52:59.725Z,7
2018-01-27T10:54:09.680Z,7.05
2018-01-27T10:55:19.623Z,6.96
2018-01-27T10:56:29.565Z,7.03
2018-01-27T10:57:39.255Z,6.9
2018-01-27T10:58:48.947Z,6.87
2018-01-27T10:59:58.937Z,6.82
2018-01-27T11:01:08.993Z,6.64
2018-01-27T11:02:18.961Z,6.56
2018-01-27T11:03:28.921Z,6.56
2018-01-27T11:04:38.868Z,6.53
2018-01-27T11:05:48.826Z,6.59
2018-01-27T11:06:58.778Z,6.5
2018-01-27T11:08:08.467Z,6.47
2018-01-27T11:09:18.413Z,6.52
2018-01-27T11:10:28.365Z,6.49
2018-01-27T11:11:38.307Z,6.44
2018-01-27T11:12:48.014Z,6.49
2018-01-27T11:13:57.961Z,6.39
2018-01-27T11:15:07.912Z,6.35
2018-01-27T11:16:17.860Z,6.38
2018-01-27T11:17:27.545Z,6.32
2018-01-27T11:18:37.230Z,6.26
2018-01-27T11:19:46.919Z,6.36
2018-01-27T11:20:56.869Z,6.39
2018-01-27T11:22:06.556Z,6.36
2018-01-27T11:23:16.250Z,6.39
2018-01-27T11:24:26.200Z,6.32
2018-01-27T11:25:35.663Z,6.39
2018-01-27T11:26:45.638Z,6.36
2018-01-27T11:27:55.593Z,6.34
2018-01-27T11:29:04.772Z,6.29
2018-01-27T11:30:14.464Z,6.35
2018-01-27T11:31:24.416Z,6.36
2018-01-27T11:32:34.355Z,6.35
2018-01-27T11:33:44.308Z,6.35
2018-01-27T11:34:54.264Z,6.32
2018-01-27T11:36:04.213Z,6.29
2018-01-27T11:37:14.177Z,6.22
2018-01-27T11:38:23.873Z,6.22
2018-01-27T11:39:33.822Z,6.32
2018-01-27T11:40:43.777Z,6.34
2018-01-27T11:41:53.500Z,6.35
2018-01-27T11:43:03.453Z,6.32
2018-01-27T11:44:13.140Z,6.31
2018-01-27T11:45:23.076Z,6.26
2018-01-27T11:46:33.036Z,6.32
2018-01-27T11:47:43.003Z,6.29
2018-01-27T11:48:52.947Z,6.22
2018-01-27T11:50:02.953Z,6.31
2018-01-27T11:51:12.642Z,6.34
2018-01-27T11:52:22.609Z,6.28
2018-01-27T11:53:32.311Z,6.13
2018-01-27T11:54:42.258Z,6.15
2018-01-27T11:55:52.202Z,6.07
2018-01-27T11:57:02.152Z,6.15
2018-01-27T11:58:12.095Z,6.17
2018-01-27T11:59:22.042Z,6.15
2018-01-27T12:00:31.738Z,6.06
2018-01-27T12:01:41.681Z,6.12
2018-01-27T12:02:51.623Z,6.17
2018-01-27T12:04:01.577Z,6.17
2018-01-27T12:05:11.532Z,6.19
2018-01-27T12:06:21.488Z,6.31
2018-01-27T12:07:30.938Z,6.26
2018-01-27T12:08:40.644Z,6.26
2018-01-27T12:09:50.608Z,6.35
2018-01-27T12:11:00.571Z,6.32
2018-01-27T12:12:10.280Z,6.35
2018-01-27T12:13:20.241Z,6.22
2018-01-27T12:14:30.197Z,6.29
2018-01-27T12:15:39.635Z,6.26
2018-01-27T12:16:49.593Z,6.29
2018-01-27T12:17:59.291Z,6.34
2018-01-27T12:19:09.044Z,6.34
2018-01-27T12:20:18.748Z,6.32
2018-01-27T12:21:28.722Z,6.29
2018-01-27T12:22:38.478Z,6.28
2018-01-27T12:23:48.447Z,6.29
2018-01-27T12:24:58.137Z,6.28
2018-01-27T12:26:08.135Z,6.35
2018-01-27T12:27:18.082Z,6.29
2018-01-27T12:28:27.775Z,6.26
2018-01-27T12:29:37.492Z,6.39
2018-01-27T12:30:47.443Z,6.39
2018-01-27T12:31:57.393Z,6.39
2018-01-27T12:33:06.823Z,6.44
2018-01-27T12:34:16.539Z,6.43
2018-01-27T12:35:26.481Z,6.44
2018-01-27T12:36:36.164Z,6.36
2018-01-27T12:37:46.123Z,6.5
2018-01-27T12:38:55.813Z,6.39
2018-01-27T12:40:05.754Z,6.52
2018-01-27T12:41:15.437Z,6.44
2018-01-27T12:42:25.387Z,6.54
2018-01-27T12:43:35.346Z,6.49
2018-01-27T12:44:45.055Z,6.56
2018-01-27T12:45:54.494Z,6.54
2018-01-27T12:47:04.452Z,6.62
2018-01-27T12:48:14.405Z,6.54
2018-01-27T12:49:24.342Z,6.65
2018-01-27T12:50:34.293Z,6.62
2018-01-27T12:51:43.988Z,6.75
2018-01-27T12:52:53.688Z,6.92
2018-01-27T12:54:03.645Z,7.33
2018-01-27T12:55:13.090Z,7.39
2018-01-27T12:56:23.044Z,7.75
2018-01-27T12:57:32.733Z,8.05
2018-01-27T12:58:42.196Z,8.45
2018-01-27T12:59:52.148Z,9.05
2018-01-27T13:01:02.108Z,9.31
2018-01-27T13:02:11.568Z,9.31
2018-01-27T13:03:21.544Z,9.64
2018-01-27T13:04:31.245Z,9.97
2018-01-27T13:05:41.188Z,10.09
2018-01-27T13:06:51.205Z,10.24
2018-01-27T13:08:01.170Z,10.43
2018-01-27T13:09:10.867Z,10.71
2018-01-27T13:10:20.811Z,10.87
2018-01-27T13:11:30.761Z,10.75
2018-01-27T13:12:40.469Z,10.8
2018-01-27T13:13:50.440Z,10.75
2018-01-27T13:15:00.399Z,11.08
2018-01-27T13:16:10.090Z,11.18
2018-01-27T13:17:20.047Z,11.2
2018-01-27T13:18:30.074Z,11.51
2018-01-27T13:19:40.104Z,11.74
2018-01-27T13:20:50.069Z,11.68
2018-01-27T13:22:00.038Z,11.58
2018-01-27T13:23:09.997Z,11.44
2018-01-27T13:24:19.723Z,11.25
2018-01-27T13:25:29.687Z,11
2018-01-27T13:26:39.383Z,10.59
2018-01-27T13:27:49.341Z,10.38
2018-01-27T13:28:58.776Z,10.25
2018-01-27T13:30:08.503Z,10.48
2018-01-27T13:31:18.195Z,10.49
2018-01-27T13:32:28.158Z,10.76
2018-01-27T13:33:37.869Z,11.07
2018-01-27T13:34:47.569Z,11.43
2018-01-27T13:35:57.269Z,11.8
2018-01-27T13:37:07.230Z,11.91
2018-01-27T13:38:17.186Z,11.96
2018-01-27T13:39:27.168Z,12.07
2018-01-27T13:40:37.177Z,11.86
2018-01-27T13:41:47.131Z,11.86
2018-01-27T13:42:57.093Z,11.77
2018-01-27T13:44:06.808Z,11.63
2018-01-27T13:45:16.508Z,11.59
2018-01-27T13:46:26.480Z,11.73
2018-01-27T13:47:36.457Z,12.05
2018-01-27T13:48:46.445Z,12.17
2018-01-27T13:49:56.401Z,12.03
2018-01-27T13:51:06.091Z,11.96
2018-01-27T13:52:16.064Z,12.1
2018-01-27T13:53:26.034Z,12
2018-01-27T13:54:35.996Z,11.68
2018-01-27T13:55:45.445Z,11.27
2018-01-27T13:56:55.406Z,11.15
2018-01-27T13:58:05.370Z,11.07
2018-01-27T13:59:15.317Z,11.13
2018-01-27T14:00:25.262Z,11
2018-01-27T14:01:34.964Z,10.87
2018-01-27T14:02:44.982Z,10.64
2018-01-27T14:03:54.949Z,10.41
2018-01-27T14:05:04.656Z,10.2
2018-01-27T14:06:14.628Z,10.06
2018-01-27T14:07:24.364Z,10
2018-01-27T14:08:34.344Z,9.7
2018-01-27T14:09:44.312Z,9.7
2018-01-27T14:10:54.280Z,9.4
2018-01-27T14:12:04.241Z,9.09
2018-01-27T14:13:14.254Z,9.09
2018-01-27T14:14:24.199Z,8.89
2018-01-27T14:15:34.206Z,8.75
2018-01-27T14:16:43.914Z,8.68
2018-01-27T14:17:53.596Z,8.5
2018-01-27T14:19:03.549Z,8.46
2018-01-27T14:20:13.257Z,8.35
2018-01-27T14:21:22.688Z,8.34
2018-01-27T14:22:32.650Z,8.2
2018-01-27T14:23:42.632Z,8.05
2018-01-27T14:24:52.347Z,7.9
2018-01-27T14:26:02.304Z,7.85
2018-01-27T14:27:11.761Z,7.85
2018-01-27T14:28:21.207Z,7.83
2018-01-27T14:29:30.914Z,7.84
2018-01-27T14:30:40.902Z,7.77
2018-01-27T14:31:50.864Z,7.7
2018-01-27T14:33:00.842Z,7.62
2018-01-27T14:34:10.789Z,7.66
2018-01-27T14:35:20.482Z,7.58
2018-01-27T14:36:30.445Z,7.41
2018-01-27T14:37:40.457Z,7.4
2018-01-27T14:38:50.151Z,7.37
2018-01-27T14:40:00.119Z,7.31
2018-01-27T14:41:10.128Z,7.28
2018-01-27T14:42:20.098Z,7.36
2018-01-27T14:43:30.052Z,7.29
2018-01-27T14:44:39.995Z,7.33
2018-01-27T14:45:50.086Z,7.18
2018-01-27T14:47:00.048Z,7.31
2018-01-27T14:48:10.024Z,7.19
2018-01-27T14:49:20.033Z,7.18
2018-01-27T14:50:29.979Z,7.21
2018-01-27T14:51:39.969Z,7.25
2018-01-27T14:52:49.934Z,7.14
2018-01-27T14:53:59.913Z,7.01
2018-01-27T14:55:09.601Z,7.03
2018-01-27T14:56:19.300Z,6.97
2018-01-27T14:57:29.248Z,7.01
2018-01-27T14:58:39.201Z,7
2018-01-27T14:59:49.147Z,6.89
2018-01-27T15:00:59.098Z,6.92
2018-01-27T15:02:08.792Z,6.87
2018-01-27T15:03:18.740Z,6.86
2018-01-27T15:04:28.453Z,6.89
2018-01-27T15:05:38.425Z,6.9
2018-01-27T15:06:48.111Z,6.85
2018-01-27T15:07:58.061Z,6.83
2018-01-27T15:09:07.753Z,6.77
2018-01-27T15:10:17.693Z,6.77
2018-01-27T15:11:27.383Z,6.78
2018-01-27T15:12:37.345Z,6.75
2018-01-27T15:13:47.302Z,6.74
2018-01-27T15:14:57.249Z,6.7
2018-01-27T15:16:07.215Z,6.72
2018-01-27T15:17:17.199Z,6.67
2018-01-27T15:18:27.143Z,6.7
2018-01-27T15:19:37.097Z,6.59
2018-01-27T15:20:46.785Z,6.68
2018-01-27T15:21:56.477Z,6.6
2018-01-27T15:23:05.666Z,6.59
2018-01-27T15:24:15.105Z,6.57
2018-01-27T15:25:25.052Z,6.56
2018-01-27T15:26:34.479Z,6.57
2018-01-27T15:27:44.456Z,6.59
2018-01-27T15:28:54.189Z,6.62
2018-01-27T15:30:04.160Z,6.56
2018-01-27T15:31:13.847Z,6.52
2018-01-27T15:32:23.821Z,6.5